Time;durP1;ratioP1;P1;durP2;ratioP2;P2;SDS_P1;SDS_P2;PMS_P1;PMS_P2;Temp;Humidity;BMP_temperature;BMP_pressure;BME280_temperature;BME280_humidity;BME280_pressure;Samples;Min_cycle;Max_cycle;Signal;HPM_P1;HPM_P2
2021/12/08 00:00:23;;;;;;;8.95;0.95;;;19.00;99.90;;;;;;4996730;28;20018;-67
2021/12/08 00:02:51;;;;;;;7.43;1.80;;;19.00;99.90;;;;;;5007795;28;20037;-67
2021/12/08 00:05:19;;;;;;;9.95;1.23;;;19.10;99.90;;;;;;4998420;28;20034;-67
2021/12/08 00:07:47;;;;;;;11.10;1.10;;;19.10;99.90;;;;;;4984664;28;20026;-67
2021/12/08 00:13:07;;;;;;;8.40;1.63;;;19.30;99.90;;;;;;4995001;28;20037;-67
2021/12/08 00:15:52;;;;;;;12.30;1.50;;;19.10;99.90;;;;;;4998479;28;20497;-67
2021/12/08 00:18:24;;;;;;;7.72;1.10;;;19.10;99.90;;;;;;4996074;28;20054;-67
2021/12/08 00:20:54;;;;;;;9.38;1.88;;;19.10;99.90;;;;;;4996193;28;20036;-67
2021/12/08 00:23:22;;;;;;;9.52;1.92;;;19.20;99.90;;;;;;4997272;28;20057;-67
2021/12/08 00:25:51;;;;;;;10.45;1.50;;;19.20;99.90;;;;;;4996398;28;20061;-67
2021/12/08 00:28:19;;;;;;;10.27;0.90;;;19.20;99.90;;;;;;4996642;28;20042;-67
2021/12/08 00:30:50;;;;;;;8.80;1.45;;;19.30;99.90;;;;;;4997603;28;20023;-68
2021/12/08 00:33:18;;;;;;;9.20;1.45;;;19.20;99.90;;;;;;5000985;28;20056;-67
2021/12/08 00:35:49;;;;;;;8.55;1.15;;;19.10;99.90;;;;;;4999407;28;20391;-67
2021/12/08 00:38:17;;;;;;;9.35;1.45;;;19.10;99.90;;;;;;4997380;28;20078;-67
2021/12/08 00:40:46;;;;;;;7.90;1.60;;;19.20;99.90;;;;;;4997977;28;20014;-67
2021/12/08 00:43:14;;;;;;;7.25;1.30;;;19.40;99.90;;;;;;4998563;28;20176;-67
2021/12/08 00:45:41;;;;;;;9.07;1.42;;;19.60;99.90;;;;;;5000124;28;20454;-67
2021/12/08 00:48:08;;;;;;;10.30;1.42;;;19.80;99.90;;;;;;4997699;28;20485;-67
2021/12/08 00:50:39;;;;;;;7.85;1.30;;;19.80;99.90;;;;;;4998887;28;20026;-66
2021/12/08 00:53:07;;;;;;;9.23;1.25;;;19.80;99.90;;;;;;4981496;28;20019;-67
2021/12/08 00:55:36;;;;;;;9.77;1.42;;;19.80;99.90;;;;;;4987979;28;20098;-67
2021/12/08 00:58:04;;;;;;;9.35;1.25;;;19.70;99.90;;;;;;5000925;28;20030;-67
2021/12/08 01:00:40;;;;;;;12.55;1.92;;;19.50;99.90;;;;;;5007670;28;20478;-67
2021/12/08 01:03:08;;;;;;;7.05;1.30;;;19.30;99.90;;;;;;5003081;28;20026;-67
2021/12/08 01:05:43;;;;;;;7.47;1.73;;;19.30;99.90;;;;;;4997897;28;20046;-68
2021/12/08 01:08:11;;;;;;;10.57;1.48;;;19.20;99.90;;;;;;4995854;28;20022;-67
2021/12/08 01:10:41;;;;;;;9.40;1.65;;;19.10;99.90;;;;;;4996732;28;20026;-67
2021/12/08 01:13:11;;;;;;;8.75;1.35;;;19.10;99.90;;;;;;4994492;28;20033;-67
2021/12/08 01:15:43;;;;;;;7.55;1.75;;;19.10;99.90;;;;;;4997046;28;20065;-67
2021/12/08 01:18:10;;;;;;;8.85;1.20;;;19.00;99.90;;;;;;4994977;28;20442;-67
2021/12/08 01:20:38;;;;;;;7.43;1.00;;;18.90;99.90;;;;;;4995840;28;20081;-67
2021/12/08 01:23:06;;;;;;;7.88;1.38;;;18.90;99.90;;;;;;4994685;28;20029;-66
2021/12/08 01:25:33;;;;;;;11.18;1.92;;;19.00;99.90;;;;;;4994591;28;20483;-68
2021/12/08 01:28:01;;;;;;;10.52;1.83;;;19.00;99.90;;;;;;4995107;28;20099;-67
2021/12/08 01:30:28;;;;;;;13.77;2.65;;;19.00;99.90;;;;;;4997404;28;20096;-67
2021/12/08 01:32:56;;;;;;;11.20;2.05;;;19.00;99.90;;;;;;5000434;28;20102;-66
2021/12/08 01:35:24;;;;;;;11.18;2.00;;;18.90;99.90;;;;;;4997243;28;20034;-67
2021/12/08 01:37:51;;;;;;;12.02;1.95;;;18.90;99.90;;;;;;4994957;28;20106;-67
2021/12/08 01:40:19;;;;;;;12.02;2.03;;;18.80;99.90;;;;;;4998608;28;20022;-67
2021/12/08 01:42:50;;;;;;;15.63;1.50;;;18.90;99.90;;;;;;4998787;28;20034;-67
2021/12/08 01:48:11;;;;;;;14.38;2.30;;;18.80;99.90;;;;;;4998504;28;20057;-67
2021/12/08 01:50:39;;;;;;;10.10;1.35;;;18.80;99.90;;;;;;5011361;28;20030;-67
2021/12/08 01:53:09;;;;;;;16.80;2.03;;;18.70;99.90;;;;;;4998039;28;20030;-67
2021/12/08 01:55:37;;;;;;;10.15;1.70;;;18.60;99.90;;;;;;4997932;28;20070;-67
2021/12/08 01:58:06;;;;;;;10.52;2.28;;;18.70;99.90;;;;;;4997742;28;20030;-67
2021/12/08 02:00:49;;;;;;;10.75;1.77;;;18.80;99.90;;;;;;4994470;28;20213;-67
2021/12/08 02:03:18;;;;;;;18.08;1.85;;;18.90;99.90;;;;;;4995832;28;20038;-67
2021/12/08 02:05:46;;;;;;;15.05;2.33;;;18.80;99.90;;;;;;5000457;28;20546;-67
2021/12/08 02:08:13;;;;;;;19.70;2.88;;;18.80;99.90;;;;;;4981597;28;20019;-68
2021/12/08 02:10:41;;;;;;;16.70;3.25;;;18.60;99.90;;;;;;4977811;28;20027;-67
2021/12/08 02:13:09;;;;;;;11.27;2.17;;;18.70;99.90;;;;;;4993776;28;20037;-67
2021/12/08 02:15:38;;;;;;;9.73;1.83;;;18.90;99.90;;;;;;4994202;28;20470;-68
2021/12/08 02:18:12;;;;;;;14.55;3.15;;;19.10;99.90;;;;;;4999104;28;20142;-67
2021/12/08 02:20:41;;;;;;;16.05;2.67;;;19.10;99.90;;;;;;5002783;28;20019;-67
2021/12/08 02:23:09;;;;;;;13.02;1.95;;;19.10;99.90;;;;;;4999061;28;20030;-68
2021/12/08 02:25:37;;;;;;;16.83;2.50;;;19.20;99.90;;;;;;5014627;28;20034;-67
2021/12/08 02:28:07;;;;;;;12.55;3.08;;;19.20;99.90;;;;;;5000446;28;20022;-67
2021/12/08 02:30:45;;;;;;;12.48;1.70;;;19.30;99.90;;;;;;4999607;28;20029;-68
2021/12/08 02:47:13;;;;;;;13.13;2.28;;;18.80;99.90;;;;;;4988118;28;20041;-67
2021/12/08 02:49:41;;;;;;;11.63;1.83;;;18.80;99.90;;;;;;5001219;28;20056;-67
2021/12/08 02:52:11;;;;;;;9.20;1.92;;;18.80;99.90;;;;;;4997519;28;20027;-67
2021/12/08 02:54:42;;;;;;;13.25;2.63;;;18.90;99.90;;;;;;5000803;28;20022;-67
2021/12/08 02:57:09;;;;;;;12.63;2.35;;;18.90;99.90;;;;;;4998340;28;20399;-67
2021/12/08 02:59:38;;;;;;;16.05;2.28;;;19.00;99.90;;;;;;5000234;28;20023;-67
2021/12/08 03:02:06;;;;;;;19.23;3.03;;;19.00;99.90;;;;;;4999293;28;20049;-67
2021/12/08 03:04:33;;;;;;;9.38;1.88;;;19.00;99.90;;;;;;4999967;28;20121;-67
2021/12/08 03:07:01;;;;;;;11.93;2.40;;;19.10;99.90;;;;;;5009307;28;20406;-67
2021/12/08 03:09:28;;;;;;;11.20;1.85;;;19.00;99.90;;;;;;5001310;28;20029;-67
2021/12/08 03:11:57;;;;;;;12.82;2.17;;;19.00;99.90;;;;;;5001266;28;20023;-67
2021/12/08 03:14:25;;;;;;;14.95;3.08;;;19.10;99.90;;;;;;4999756;28;20506;-67
2021/12/08 03:16:57;;;;;;;18.00;2.50;;;19.10;99.90;;;;;;4998469;28;20022;-67
2021/12/08 03:19:26;;;;;;;17.92;2.80;;;19.10;99.90;;;;;;5001052;28;20026;-67
2021/12/08 03:21:55;;;;;;;16.65;3.15;;;19.00;99.90;;;;;;4999924;28;20080;-67
2021/12/08 03:29:58;;;;;;;22.27;4.78;;;18.70;99.90;;;;;;4998016;28;20038;-67
2021/12/08 03:32:40;;;;;;;14.13;2.63;;;18.70;99.90;;;;;;4997861;28;20038;-67
2021/12/08 03:35:11;;;;;;;20.40;2.63;;;18.60;99.90;;;;;;5000163;28;20395;-67
2021/12/08 03:37:44;;;;;;;18.98;3.53;;;18.60;99.90;;;;;;5014420;28;20026;-67
2021/12/08 03:40:20;;;;;;;18.98;4.90;;;18.70;99.90;;;;;;4989509;28;20479;-67
2021/12/08 03:42:50;;;;;;;20.67;3.25;;;18.70;99.90;;;;;;5003848;28;20027;-68
2021/12/08 03:45:34;;;;;;;15.27;3.08;;;18.70;99.90;;;;;;5000505;28;20026;-67
2021/12/08 03:48:20;;;;;;;20.98;3.50;;;18.60;99.90;;;;;;4996887;28;20046;-67
2021/12/08 03:50:48;;;;;;;17.50;3.70;;;18.60;99.90;;;;;;4998173;28;20033;-67
2021/12/08 03:53:16;;;;;;;17.13;2.80;;;18.60;99.90;;;;;;4998532;28;20479;-67
2021/12/08 03:55:50;;;;;;;27.88;3.60;;;18.60;99.90;;;;;;4998123;28;20038;-66
2021/12/08 03:58:17;;;;;;;;;;;18.50;99.90;;;;;;4997226;28;20085;-67
2021/12/08 04:00:49;;;;;;;17.38;3.00;;;18.40;99.90;;;;;;5012763;28;19976;-67
2021/12/08 04:03:18;;;;;;;18.63;2.65;;;18.30;99.90;;;;;;4997640;28;20038;-67
2021/12/08 04:08:18;;;;;;;16.73;3.03;;;18.30;99.90;;;;;;4999046;28;20052;-67
2021/12/08 04:10:48;;;;;;;22.25;3.05;;;18.30;99.90;;;;;;5016072;28;20023;-67
2021/12/08 04:13:19;;;;;;;20.65;2.92;;;18.20;99.90;;;;;;4996017;28;20019;-67
2021/12/08 04:15:47;;;;;;;21.88;3.63;;;18.20;99.90;;;;;;4996878;28;20046;-67
2021/12/08 04:18:15;;;;;;;22.23;3.58;;;18.10;99.90;;;;;;4995866;28;20027;-67
2021/12/08 04:20:51;;;;;;;19.65;3.08;;;18.10;99.90;;;;;;4997698;28;20023;-67
2021/12/08 04:23:21;;;;;;;14.77;2.42;;;18.10;99.90;;;;;;5012477;28;20061;-67
2021/12/08 04:25:54;;;;;;;19.25;2.65;;;18.10;99.90;;;;;;5000761;28;20074;-68
2021/12/08 04:28:26;;;;;;;18.55;2.08;;;18.00;99.90;;;;;;4999860;28;20278;-67
2021/12/08 04:31:25;;;;;;;15.52;2.88;;;18.10;99.90;;;;;;4998732;28;20064;-67
2021/12/08 04:33:59;;;;;;;18.48;3.47;;;18.00;99.90;;;;;;4986737;28;20517;-67
2021/12/08 04:36:36;;;;;;;19.50;3.35;;;18.10;99.90;;;;;;4980421;28;20049;-66
2021/12/08 04:39:09;;;;;;;20.92;2.35;;;18.10;99.90;;;;;;4978964;28;20023;-67
2021/12/08 04:41:42;;;;;;;17.40;3.25;;;18.00;99.90;;;;;;4996516;28;20053;-66
2021/12/08 04:44:37;;;;;;;22.58;2.20;;;18.00;99.90;;;;;;4995203;28;20042;-66
2021/12/08 05:03:48;;;;;;;24.23;3.03;;;17.80;99.90;;;;;;4995542;28;20096;-67
2021/12/08 05:08:54;;;;;;;28.20;3.88;;;17.80;99.90;;;;;;4995551;28;20037;-67
2021/12/08 05:11:26;;;;;;;21.42;3.22;;;17.80;99.90;;;;;;4996549;28;20026;-66
2021/12/08 05:13:58;;;;;;;24.02;4.20;;;17.80;99.90;;;;;;4994098;28;20050;-67
2021/12/08 05:16:26;;;;;;;18.85;4.07;;;17.80;99.90;;;;;;4994153;28;20081;-66
2021/12/08 05:18:56;;;;;;;21.05;3.17;;;17.70;99.90;;;;;;5011438;28;20034;-66
2021/12/08 05:21:27;;;;;;;25.30;3.15;;;17.80;99.90;;;;;;4993945;28;20019;-66
2021/12/08 05:24:01;;;;;;;18.23;2.75;;;17.70;99.90;;;;;;4994025;28;20049;-67
2021/12/08 05:26:40;;;;;;;26.25;4.07;;;17.70;99.90;;;;;;4994480;28;20541;-66
2021/12/08 05:29:18;;;;;;;21.38;2.97;;;17.60;99.90;;;;;;4983318;28;20034;-66
2021/12/08 05:31:47;;;;;;;23.00;2.53;;;17.60;99.90;;;;;;4980657;28;20498;-66
2021/12/08 05:34:15;;;;;;;28.60;3.08;;;17.60;99.90;;;;;;4993699;28;20026;-66
2021/12/08 05:36:42;;;;;;;26.45;2.72;;;17.60;99.90;;;;;;5006163;28;20038;-66
2021/12/08 05:39:16;;;;;;;25.60;2.85;;;17.60;99.90;;;;;;4994200;28;20027;-66
2021/12/08 05:41:44;;;;;;;18.67;2.78;;;17.60;99.90;;;;;;4993720;28;20042;-66
2021/12/08 05:44:12;;;;;;;25.10;2.95;;;17.60;99.90;;;;;;4994408;28;20045;-66
2021/12/08 05:46:42;;;;;;;27.75;3.42;;;17.60;99.90;;;;;;4992446;28;20034;-66
2021/12/08 05:49:14;;;;;;;28.65;4.22;;;17.60;99.90;;;;;;4993440;28;20026;-66
2021/12/08 05:51:42;;;;;;;22.45;3.70;;;17.50;99.90;;;;;;4996249;28;20065;-67
2021/12/08 05:54:14;;;;;;;16.83;2.60;;;17.60;99.90;;;;;;4997482;28;20022;-66
2021/12/08 05:56:43;;;;;;;21.63;2.55;;;17.50;99.90;;;;;;4996938;28;20022;-67
2021/12/08 05:59:11;;;;;;;20.10;3.50;;;17.40;99.90;;;;;;4996213;28;20077;-66
2021/12/08 06:01:57;;;;;;;22.30;3.05;;;17.40;99.90;;;;;;4996125;28;20033;-67
2021/12/08 06:04:27;;;;;;;23.65;3.95;;;17.30;99.90;;;;;;4996233;28;20025;-66
2021/12/08 06:06:55;;;;;;;21.45;3.88;;;17.30;99.90;;;;;;4995042;28;20058;-67
2021/12/08 06:09:26;;;;;;;19.30;2.50;;;17.20;99.90;;;;;;4997307;28;20032;-67
2021/12/08 06:11:54;;;;;;;27.60;3.75;;;17.20;99.90;;;;;;4996384;28;20018;-67
2021/12/08 06:14:25;;;;;;;21.33;3.28;;;17.00;99.90;;;;;;4996777;28;20105;-66
2021/12/08 06:16:53;;;;;;;21.80;3.72;;;17.00;99.90;;;;;;4996227;28;20030;-66
2021/12/08 06:19:21;;;;;;;17.75;2.58;;;16.90;99.90;;;;;;4996932;28;20018;-67
2021/12/08 06:21:49;;;;;;;29.20;3.70;;;17.00;99.90;;;;;;4994061;28;20141;-67
2021/12/08 06:24:18;;;;;;;23.15;3.85;;;16.90;99.90;;;;;;4983556;28;20034;-67
2021/12/08 06:26:45;;;;;;;19.88;2.85;;;16.90;99.90;;;;;;4982386;28;20029;-67
2021/12/08 06:29:15;;;;;;;25.55;5.05;;;16.90;99.90;;;;;;4996878;28;20085;-67
2021/12/08 06:31:44;;;;;;;16.52;3.22;;;16.80;99.90;;;;;;4994586;28;20014;-67
2021/12/08 06:34:11;;;;;;;30.90;5.07;;;16.80;99.90;;;;;;4996946;28;20390;-66
2021/12/08 06:37:13;;;;;;;23.90;5.38;;;16.70;99.90;;;;;;4995729;28;20548;-66
2021/12/08 06:40:00;;;;;;;17.58;3.40;;;16.60;99.90;;;;;;4975555;28;20081;-65
2021/12/08 06:42:32;;;;;;;25.73;3.40;;;16.70;99.90;;;;;;4989098;28;20023;-66
2021/12/08 06:45:00;;;;;;;22.92;3.83;;;16.60;99.90;;;;;;5012313;28;20026;-66
2021/12/08 06:47:31;;;;;;;20.45;3.55;;;16.60;99.90;;;;;;4996671;28;20050;-66
2021/12/08 06:50:04;;;;;;;25.73;4.15;;;16.50;99.90;;;;;;5013509;28;20026;-66
2021/12/08 06:52:38;;;;;;;19.85;3.22;;;16.40;99.90;;;;;;4997622;28;20049;-65
2021/12/08 06:55:11;;;;;;;20.85;4.18;;;16.50;99.90;;;;;;4998466;28;20131;-66
2021/12/08 06:57:49;;;;;;;24.35;4.95;;;16.40;99.90;;;;;;4996436;28;20133;-66
2021/12/08 07:00:56;;;;;;;22.10;3.05;;;16.40;99.90;;;;;;4997980;28;20029;-66
2021/12/08 07:03:42;;;;;;;20.13;3.45;;;16.40;99.90;;;;;;4996542;28;20037;-66
2021/12/08 07:09:15;;;;;;;20.52;4.13;;;16.60;99.90;;;;;;4981830;28;20039;-65
2021/12/08 07:11:42;;;;;;;18.95;4.30;;;16.60;99.90;;;;;;4985360;28;20038;-66
2021/12/08 07:14:11;;;;;;;35.85;5.85;;;16.60;99.90;;;;;;4999399;28;20046;-66
2021/12/08 07:16:42;;;;;;;23.45;4.88;;;16.50;99.90;;;;;;4998273;28;20037;-64
2021/12/08 07:19:24;;;;;;;22.30;4.50;;;16.60;99.90;;;;;;5017029;28;20121;-66
2021/12/08 07:21:53;;;;;;;28.25;5.10;;;16.60;99.90;;;;;;5014871;28;20038;-65
2021/12/08 07:24:28;;;;;;;14.90;3.17;;;16.50;99.90;;;;;;5001301;28;20073;-65
2021/12/08 07:27:05;;;;;;;18.45;4.10;;;16.60;99.90;;;;;;5001448;28;20105;-65
2021/12/08 07:29:35;;;;;;;16.27;3.33;;;16.70;99.90;;;;;;5016675;28;20045;-66
2021/12/08 07:32:08;;;;;;;16.77;3.22;;;16.70;99.90;;;;;;5000975;28;20037;-65
2021/12/08 07:34:37;;;;;;;16.15;4.10;;;16.80;99.90;;;;;;5002087;28;20027;-68
2021/12/08 07:37:16;;;;;;;17.60;5.15;;;16.80;99.90;;;;;;5013410;28;20081;-66
2021/12/08 07:39:48;;;;;;;22.80;4.75;;;16.80;99.90;;;;;;4982738;28;20114;-65
2021/12/08 07:42:21;;;;;;;18.73;4.07;;;16.70;99.90;;;;;;4988143;28;20368;-64
2021/12/08 07:44:52;;;;;;;21.35;4.88;;;16.70;99.90;;;;;;4998691;28;20049;-64
2021/12/08 07:47:22;;;;;;;24.30;4.82;;;16.70;99.90;;;;;;5012629;28;20510;-64
2021/12/08 07:49:55;;;;;;;23.48;5.07;;;16.70;99.90;;;;;;4999242;28;20022;-64
2021/12/08 07:52:33;;;;;;;19.45;3.92;;;16.80;99.90;;;;;;4996506;28;20034;-64
2021/12/08 07:55:02;;;;;;;18.27;3.85;;;16.80;99.90;;;;;;4999277;28;20038;-64
2021/12/08 07:57:34;;;;;;;20.50;4.00;;;16.80;99.90;;;;;;5000648;28;20045;-66
2021/12/08 08:00:09;;;;;;;20.17;4.00;;;16.90;99.90;;;;;;5003105;28;20049;-65
2021/12/08 08:02:36;;;;;;;18.67;3.90;;;16.80;99.90;;;;;;5001616;28;20030;-65
2021/12/08 08:05:05;;;;;;;18.02;3.38;;;16.70;99.90;;;;;;5017560;28;20030;-65
2021/12/08 08:07:33;;;;;;;18.02;2.63;;;16.70;99.90;;;;;;5002690;28;20034;-64
2021/12/08 08:10:02;;;;;;;19.10;3.40;;;16.70;99.90;;;;;;4998505;28;20034;-65
2021/12/08 08:12:35;;;;;;;20.92;4.30;;;16.80;99.90;;;;;;4992489;28;20434;-65
2021/12/08 08:15:09;;;;;;;16.75;3.17;;;16.80;99.90;;;;;;5012532;28;20082;-64
2021/12/08 08:17:41;;;;;;;15.93;2.53;;;16.80;99.90;;;;;;4998241;28;20037;-65
2021/12/08 08:20:20;;;;;;;17.38;2.88;;;16.80;99.90;;;;;;4998799;28;20034;-65
2021/12/08 08:22:47;;;;;;;18.52;2.47;;;16.80;99.90;;;;;;4998435;28;20050;-65
2021/12/08 08:25:18;;;;;;;16.60;2.60;;;16.90;99.90;;;;;;5011923;28;20497;-65
2021/12/08 08:27:46;;;;;;;18.30;2.53;;;16.90;99.90;;;;;;4996667;28;20156;-65
2021/12/08 08:30:20;;;;;;;19.10;3.80;;;16.90;99.90;;;;;;5002303;28;20031;-64
2021/12/08 08:32:50;;;;;;;24.73;3.85;;;16.90;99.90;;;;;;4988879;28;20105;-64
2021/12/08 08:35:32;;;;;;;19.38;9.80;;;16.80;99.90;;;;;;4981927;28;20043;-64
2021/12/08 08:38:01;;;;;;;19.75;3.90;;;16.80;99.90;;;;;;5013240;28;20034;-65
2021/12/08 08:40:37;;;;;;;16.15;4.82;;;16.80;99.90;;;;;;5003556;28;20030;-64
2021/12/08 08:43:06;;;;;;;20.35;3.72;;;16.70;99.90;;;;;;5017472;28;20045;-65
2021/12/08 08:46:07;;;;;;;20.52;3.97;;;16.70;99.90;;;;;;5001999;28;20026;-65
2021/12/08 08:48:42;;;;;;;23.05;3.22;;;16.60;99.90;;;;;;5000711;28;20151;-65
2021/12/08 08:51:35;;;;;;;21.88;2.70;;;16.70;99.90;;;;;;5006596;28;20082;-65
2021/12/08 08:54:11;;;;;;;21.77;2.88;;;16.60;99.90;;;;;;5001090;28;20077;-65
2021/12/08 08:56:45;;;;;;;24.83;3.22;;;16.60;99.90;;;;;;5004404;28;20030;-65
2021/12/08 08:59:17;;;;;;;24.00;2.88;;;16.50;99.90;;;;;;5007712;28;20041;-66
2021/12/08 09:01:49;;;;;;;26.40;3.58;;;16.50;99.90;;;;;;5008276;28;20098;-66
2021/12/08 09:04:30;;;;;;;19.42;3.63;;;16.50;99.90;;;;;;5007423;28;20041;-65
2021/12/08 09:07:04;;;;;;;23.42;4.10;;;16.50;99.90;;;;;;5004791;28;20089;-65
2021/12/08 09:09:36;;;;;;;21.25;3.70;;;16.60;99.90;;;;;;5022289;28;20022;-65
2021/12/08 09:12:19;;;;;;;27.02;4.47;;;16.60;99.90;;;;;;5003201;28;20030;-65
2021/12/08 09:14:52;;;;;;;22.42;3.72;;;16.60;99.90;;;;;;5000322;28;20137;-65
2021/12/08 09:17:24;;;;;;;26.25;3.83;;;16.60;99.90;;;;;;4998887;28;20023;-65
2021/12/08 09:20:23;;;;;;;28.50;4.35;;;16.60;99.90;;;;;;4999282;28;20385;-65
2021/12/08 09:23:08;;;;;;;22.98;3.83;;;16.70;99.90;;;;;;5002702;28;20391;-65
2021/12/08 09:25:45;;;;;;;19.98;2.88;;;16.60;99.90;;;;;;4997303;28;20072;-65
2021/12/08 09:28:22;;;;;;;21.65;3.10;;;16.70;99.90;;;;;;4995760;28;20035;-65
2021/12/08 09:31:03;;;;;;;20.17;2.55;;;16.70;99.90;;;;;;4997486;28;20467;-65
2021/12/08 09:33:39;;;;;;;18.77;2.58;;;16.60;99.90;;;;;;4996946;28;20043;-66
2021/12/08 09:36:12;;;;;;;26.58;4.35;;;16.60;99.90;;;;;;4994243;28;20109;-65
2021/12/08 09:38:51;;;;;;;25.00;3.08;;;16.60;99.90;;;;;;4995792;28;20026;-65
2021/12/08 09:41:28;;;;;;;19.73;3.85;;;16.60;99.90;;;;;;5010692;28;20039;-65
2021/12/08 09:44:01;;;;;;;18.30;3.67;;;16.60;99.90;;;;;;4996804;28;20029;-65
2021/12/08 09:46:35;;;;;;;21.13;2.35;;;16.50;99.90;;;;;;4995956;28;20026;-65
2021/12/08 09:49:04;;;;;;;21.38;2.88;;;16.60;99.90;;;;;;4995822;28;20030;-65
2021/12/08 09:51:35;;;;;;;17.42;3.20;;;16.60;99.90;;;;;;4994387;28;20026;-65
2021/12/08 09:54:02;;;;;;;29.70;4.03;;;16.60;99.90;;;;;;4995085;28;20482;-65
2021/12/08 09:56:30;;;;;;;16.38;2.88;;;16.60;99.90;;;;;;5010311;28;20032;-65
2021/12/08 09:58:58;;;;;;;21.67;3.92;;;16.60;99.90;;;;;;4995651;28;20034;-66
2021/12/08 10:01:26;;;;;;;21.25;3.67;;;16.50;99.90;;;;;;4983562;28;20510;-65
2021/12/08 10:03:55;;;;;;;18.05;3.38;;;16.50;99.90;;;;;;4994632;28;20379;-66
2021/12/08 10:06:25;;;;;;;25.65;3.03;;;16.60;99.90;;;;;;4992680;28;20499;-65
2021/12/08 10:08:57;;;;;;;19.17;3.58;;;16.60;99.90;;;;;;4993821;28;20026;-65
2021/12/08 10:11:26;;;;;;;18.90;2.40;;;16.60;99.90;;;;;;4992620;28;20026;-66
2021/12/08 10:13:54;;;;;;;28.02;3.60;;;16.70;99.90;;;;;;4993965;28;20050;-66
2021/12/08 10:16:22;;;;;;;16.17;3.10;;;16.70;99.90;;;;;;4994961;28;20402;-65
2021/12/08 10:18:51;;;;;;;16.48;2.65;;;16.60;99.90;;;;;;4996069;28;20141;-65
2021/12/08 10:21:20;;;;;;;23.85;2.60;;;16.50;99.90;;;;;;5009534;28;20141;-65
2021/12/08 10:23:49;;;;;;;24.75;2.70;;;16.60;99.90;;;;;;5009727;28;20425;-66
2021/12/08 10:26:20;;;;;;;22.58;3.25;;;16.60;99.90;;;;;;4993917;28;20401;-65
2021/12/08 10:28:51;;;;;;;21.73;2.78;;;16.60;99.90;;;;;;4993076;28;20050;-66
2021/12/08 10:31:32;;;;;;;16.35;3.25;;;16.60;99.90;;;;;;4994421;28;20082;-66
2021/12/08 10:36:55;;;;;;;19.70;2.47;;;16.70;99.90;;;;;;4992843;28;20116;-66
2021/12/08 10:39:46;;;;;;;30.10;3.53;;;16.70;99.90;;;;;;4996223;28;20031;-66
2021/12/08 10:42:18;;;;;;;16.52;2.88;;;16.70;99.90;;;;;;5003957;28;20030;-65
2021/12/08 10:44:56;;;;;;;21.35;3.22;;;16.70;99.90;;;;;;4997361;28;20026;-66
2021/12/08 10:47:38;;;;;;;25.10;3.35;;;16.60;99.90;;;;;;4996639;28;20098;-66
2021/12/08 10:55:53;;;;;;;12.80;2.83;;;16.60;99.90;;;;;;4977763;28;20069;-66
2021/12/08 10:58:29;;;;;;;14.90;2.85;;;16.50;99.90;;;;;;5011596;28;20026;-66
2021/12/08 11:01:00;;;;;;;25.35;2.97;;;16.50;99.90;;;;;;4996870;28;20061;-66
2021/12/08 11:03:32;;;;;;;18.52;2.65;;;16.50;99.90;;;;;;4995315;28;20502;-66
2021/12/08 11:06:02;;;;;;;19.83;2.97;;;16.50;99.90;;;;;;4995916;28;20046;-66
2021/12/08 11:08:38;;;;;;;13.98;2.33;;;16.40;99.90;;;;;;4996618;28;20383;-66
2021/12/08 11:11:10;;;;;;;20.30;2.65;;;16.50;99.90;;;;;;5011662;28;20030;-65
2021/12/08 11:13:41;;;;;;;21.50;3.63;;;16.50;99.90;;;;;;5012739;28;20031;-66
2021/12/08 11:16:16;;;;;;;15.63;2.75;;;16.50;99.90;;;;;;4996160;28;20141;-65
2021/12/08 11:19:03;;;;;;;16.02;3.25;;;16.50;99.90;;;;;;4989977;28;20030;-66
2021/12/08 11:21:36;;;;;;;23.38;3.92;;;16.50;99.90;;;;;;5009883;28;20109;-66
2021/12/08 11:24:10;;;;;;;23.75;5.30;;;16.50;99.90;;;;;;4996751;28;20490;-66
2021/12/08 11:26:41;;;;;;;17.42;3.25;;;16.50;99.90;;;;;;4994580;28;20023;-66
2021/12/08 11:29:26;;;;;;;19.05;3.38;;;16.50;99.90;;;;;;4996399;28;20394;-66
2021/12/08 11:32:03;;;;;;;24.23;4.03;;;16.50;99.90;;;;;;4995600;28;20018;-66
2021/12/08 11:34:46;;;;;;;20.95;3.28;;;16.50;99.90;;;;;;4996481;28;20394;-66
2021/12/08 11:37:18;;;;;;;19.92;2.88;;;16.50;99.90;;;;;;4996338;28;20034;-66
2021/12/08 11:39:52;;;;;;;16.25;3.10;;;16.50;99.90;;;;;;4996505;28;20038;-67
2021/12/08 11:42:22;;;;;;;15.68;3.05;;;16.50;99.90;;;;;;4995953;28;20030;-66
2021/12/08 11:44:58;;;;;;;26.27;4.05;;;16.50;99.90;;;;;;4996234;28;20034;-66
2021/12/08 11:47:34;;;;;;;19.90;2.53;;;16.50;99.90;;;;;;4995588;28;20030;-66
2021/12/08 11:50:16;;;;;;;23.33;3.95;;;16.50;99.90;;;;;;4987294;28;20019;-66
2021/12/08 11:52:44;;;;;;;15.73;3.50;;;16.40;99.90;;;;;;4990282;28;20076;-66
2021/12/08 11:55:17;;;;;;;15.73;2.95;;;16.40;99.90;;;;;;4996463;28;20030;-65
2021/12/08 11:57:54;;;;;;;17.37;3.60;;;16.40;99.90;;;;;;4994736;28;20364;-66
2021/12/08 12:00:28;;;;;;;25.48;4.18;;;16.40;99.90;;;;;;4994858;28;20018;-66
2021/12/08 12:03:01;;;;;;;;;;;16.40;99.90;;;;;;4993880;28;20023;-66
2021/12/08 12:05:31;;;;;;;20.88;3.58;;;16.30;99.90;;;;;;4993794;28;19925;-66
2021/12/08 12:07:59;;;;;;;18.92;4.20;;;16.40;99.90;;;;;;4995251;28;20113;-66
2021/12/08 12:10:32;;;;;;;24.27;3.80;;;16.30;99.90;;;;;;4995971;28;20022;-66
2021/12/08 12:13:03;;;;;;;16.92;2.53;;;16.30;99.90;;;;;;4995152;28;20030;-65
2021/12/08 12:15:31;;;;;;;18.15;4.70;;;16.30;99.90;;;;;;4996794;28;20406;-65
2021/12/08 12:17:58;;;;;;;18.50;3.25;;;16.30;99.90;;;;;;4997584;28;20498;-65
2021/12/08 12:20:28;;;;;;;24.48;4.57;;;16.20;99.90;;;;;;4998243;28;20033;-65
2021/12/08 12:23:32;;;;;;;18.27;4.05;;;16.10;99.90;;;;;;4997742;28;20033;-65
2021/12/08 12:26:23;;;;;;;17.92;4.50;;;16.20;99.90;;;;;;4998282;28;20055;-65
2021/12/08 12:28:56;;;;;;;22.92;4.05;;;16.10;99.90;;;;;;4978668;28;20073;-65
2021/12/08 12:31:29;;;;;;;19.58;5.00;;;16.10;99.90;;;;;;4979556;28;20776;-66
2021/12/08 12:33:57;;;;;;;20.20;4.18;;;16.00;99.90;;;;;;4979420;28;20027;-66
2021/12/08 12:36:27;;;;;;;15.90;4.10;;;16.00;99.90;;;;;;4979273;28;20981;-66
2021/12/08 12:39:16;;;;;;;18.90;4.63;;;16.10;99.90;;;;;;4996246;28;20034;-65
2021/12/08 12:41:45;;;;;;;23.00;4.38;;;16.10;99.90;;;;;;4994302;28;20022;-66
2021/12/08 12:44:24;;;;;;;17.75;3.50;;;16.20;99.90;;;;;;4985598;28;20030;-66
2021/12/08 12:47:11;;;;;;;28.02;4.55;;;16.30;99.90;;;;;;4993639;28;20026;-66
2021/12/08 12:49:42;;;;;;;20.95;5.07;;;16.20;99.90;;;;;;4976210;28;20027;-66
2021/12/08 12:52:13;;;;;;;17.50;4.57;;;16.30;99.90;;;;;;4984121;28;20023;-66
2021/12/08 12:54:42;;;;;;;13.70;4.20;;;16.30;99.90;;;;;;4994848;28;20496;-66
2021/12/08 12:57:10;;;;;;;20.25;4.15;;;16.30;99.90;;;;;;5007524;28;20034;-67
2021/12/08 12:59:51;;;;;;;17.10;3.75;;;16.30;99.90;;;;;;4994738;28;20105;-66
2021/12/08 13:02:29;;;;;;;26.83;4.93;;;16.30;99.90;;;;;;4994264;28;20029;-67
2021/12/08 13:05:08;;;;;;;18.35;3.92;;;16.30;99.90;;;;;;4994635;28;20105;-67
2021/12/08 13:07:42;;;;;;;17.83;4.05;;;16.30;99.90;;;;;;4982796;28;20232;-66
2021/12/08 13:10:20;;;;;;;19.50;4.20;;;16.30;99.90;;;;;;4990666;28;20089;-67
2021/12/08 13:12:47;;;;;;;16.88;3.58;;;16.30;99.90;;;;;;4989082;28;20433;-66
2021/12/08 13:15:21;;;;;;;20.35;4.10;;;16.30;99.90;;;;;;4994303;28;20054;-66
2021/12/08 13:18:06;;;;;;;16.98;3.65;;;16.40;99.90;;;;;;4994005;28;20026;-66
2021/12/08 13:20:35;;;;;;;21.13;4.18;;;16.30;99.90;;;;;;4994722;28;20483;-66
2021/12/08 13:23:11;;;;;;;22.00;4.80;;;16.40;99.90;;;;;;4994272;28;20026;-67
2021/12/08 13:28:45;;;;;;;23.35;3.60;;;16.30;99.90;;;;;;4993653;28;20038;-67
2021/12/08 13:31:20;;;;;;;15.15;3.30;;;16.40;99.90;;;;;;5009699;28;20027;-67
2021/12/08 13:34:02;;;;;;;17.33;3.90;;;16.30;99.90;;;;;;4975637;28;20060;-67
2021/12/08 13:36:34;;;;;;;20.70;3.85;;;16.30;99.90;;;;;;4977186;28;20022;-67
2021/12/08 13:39:12;;;;;;;19.38;4.25;;;16.40;99.90;;;;;;5001962;28;20097;-67
2021/12/08 13:41:42;;;;;;;17.42;3.90;;;16.40;99.90;;;;;;4979708;28;20097;-66
2021/12/08 13:44:46;;;;;;;15.15;3.42;;;16.30;99.90;;;;;;5010058;28;20477;-67
2021/12/08 13:47:35;;;;;;;20.67;4.00;;;16.30;99.90;;;;;;4993793;28;20065;-67
2021/12/08 13:50:24;;;;;;;26.27;4.72;;;16.30;99.90;;;;;;5009868;28;20039;-67
2021/12/08 13:53:09;;;;;;;22.88;5.25;;;16.20;99.90;;;;;;4992925;28;20029;-67
2021/12/08 13:55:44;;;;;;;13.43;3.67;;;16.20;99.90;;;;;;4993188;28;20065;-67
2021/12/08 14:00:47;;;;;;;18.50;4.20;;;16.20;99.90;;;;;;4990562;28;20062;-67
2021/12/08 14:03:20;;;;;;;15.23;3.75;;;16.30;99.90;;;;;;4990997;28;20038;-67
2021/12/08 14:05:51;;;;;;;18.25;4.22;;;16.30;99.90;;;;;;4992715;28;20054;-67
2021/12/08 14:08:38;;;;;;;14.20;3.42;;;16.30;99.90;;;;;;4993309;28;20471;-67
2021/12/08 14:11:10;;;;;;;16.90;3.83;;;16.40;99.90;;;;;;4993835;28;20105;-67